Time;durP1;ratioP1;P1;durP2;ratioP2;P2;SDS_P1;SDS_P2;PMS_P1;PMS_P2;Temp;Humidity;BMP_temperature;BMP_pressure;BME280_temperature;BME280_humidity;BME280_pressure;Samples;Min_cycle;Max_cycle;Signal;HPM_P1;HPM_P2
2022/09/13 00:01:25;;;;;;;19.05;7.10;;;;;;;13.15;83.69;96053.69;5072244;28;20040;-79
2022/09/13 00:03:53;;;;;;;22.58;7.80;;;;;;;13.06;83.64;96049.16;5072844;28;20041;-80
2022/09/13 00:06:20;;;;;;;26.10;7.97;;;;;;;13.08;84.33;96035.13;5072241;28;20117;-79
2022/09/13 00:08:47;;;;;;;20.17;6.68;;;;;;;13.06;84.65;96040.16;5073033;28;20040;-79
2022/09/13 00:11:16;;;;;;;26.17;7.93;;;;;;;13.11;84.56;96034.47;5071829;28;20051;-79
2022/09/13 00:13:42;;;;;;;15.60;6.30;;;;;;;13.11;84.12;96042.66;5072483;28;20040;-79
2022/09/13 00:16:12;;;;;;;24.92;7.80;;;;;;;13.08;84.20;96032.41;5072170;28;20044;-79
2022/09/13 00:18:39;;;;;;;24.52;7.95;;;;;;;13.07;83.85;96037.06;5072653;28;20037;-79
2022/09/13 00:21:10;;;;;;;25.20;7.55;;;;;;;13.01;83.85;96032.19;5056726;28;20073;-79
2022/09/13 00:23:37;;;;;;;23.17;7.63;;;;;;;12.96;83.85;96029.66;5052516;28;20044;-79
2022/09/13 00:26:06;;;;;;;19.52;5.90;;;;;;;12.93;83.65;96030.34;5058666;28;20446;-81
2022/09/13 00:28:33;;;;;;;22.35;7.13;;;;;;;12.87;82.70;96013.38;5072526;28;20079;-79
2022/09/13 00:31:01;;;;;;;17.88;6.60;;;;;;;12.86;83.29;96013.72;5072590;28;20074;-79
2022/09/13 00:33:27;;;;;;;26.75;7.97;;;;;;;12.70;84.05;96003.47;5072060;28;20446;-78
2022/09/13 00:35:54;;;;;;;24.48;7.90;;;;;;;12.62;85.11;95993.41;5072163;28;20047;-78
2022/09/13 00:38:22;;;;;;;17.00;6.85;;;;;;;12.68;85.43;95997.53;5071760;28;20053;-79
2022/09/13 00:40:48;;;;;;;30.45;8.07;;;;;;;12.66;85.24;95983.41;5072130;28;20055;-78
2022/09/13 00:43:18;;;;;;;25.20;7.85;;;;;;;12.69;84.84;95971.81;5071782;28;20054;-79
2022/09/13 00:45:44;;;;;;;33.47;8.95;;;;;;;12.74;84.93;95973.53;5071913;28;20040;-77
2022/09/13 00:48:18;;;;;;;20.02;7.32;;;;;;;12.77;84.85;95979.09;5071571;28;20079;-80
2022/09/13 00:50:48;;;;;;;25.20;7.35;;;;;;;12.79;85.23;95987.75;5071355;28;20645;-78
2022/09/13 00:53:18;;;;;;;23.58;7.68;;;;;;;12.83;84.51;95993.31;5071422;28;20135;-78
2022/09/13 00:55:49;;;;;;;19.83;6.47;;;;;;;12.78;84.05;95999.81;5071320;28;20044;-79
2022/09/13 00:58:18;;;;;;;17.17;6.13;;;;;;;12.72;84.05;95997.66;5071347;28;20051;-78
2022/09/13 01:00:47;;;;;;;28.23;7.63;;;;;;;12.69;84.42;96007.34;5071573;28;20415;-78
2022/09/13 01:03:17;;;;;;;21.95;7.75;;;;;;;12.54;84.64;96008.00;5070614;28;20447;-78
2022/09/13 01:05:49;;;;;;;29.50;7.53;;;;;;;12.52;85.05;96002.06;5071623;28;20048;-77
2022/09/13 01:08:21;;;;;;;24.23;7.40;;;;;;;12.48;85.34;95992.97;5071127;28;20064;-78
2022/09/13 01:10:51;;;;;;;22.40;7.45;;;;;;;12.50;85.61;95987.94;5071476;28;20048;-77
2022/09/13 01:13:20;;;;;;;24.13;7.65;;;;;;;12.54;85.88;95992.41;5071067;28;20044;-78
2022/09/13 01:15:47;;;;;;;20.95;6.97;;;;;;;12.54;85.91;95983.41;5071399;28;20052;-78
2022/09/13 01:18:13;;;;;;;20.08;7.25;;;;;;;12.54;86.22;95967.03;5071060;28;20049;-79
2022/09/13 01:21:18;;;;;;;21.73;7.47;;;;;;;12.40;85.92;95972.78;5071268;28;20068;-79
2022/09/13 01:24:04;;;;;;;21.38;7.05;;;;;;;12.43;85.88;95968.59;5071129;28;20045;-78
2022/09/13 01:26:51;;;;;;;17.75;6.35;;;;;;;12.47;85.81;95969.50;5070956;28;20040;-78
2022/09/13 01:30:02;;;;;;;20.15;7.07;;;;;;;12.43;85.95;95952.22;5070766;28;20395;-78
2022/09/13 01:32:37;;;;;;;19.40;7.18;;;;;;;12.41;85.69;95955.28;5008267;28;20052;-78
2022/09/13 01:35:15;;;;;;;19.52;6.90;;;;;;;12.41;85.61;95954.47;5058896;28;20040;-79
2022/09/13 01:37:51;;;;;;;26.20;6.95;;;;;;;12.38;85.29;95964.16;5071052;28;20048;-78
2022/09/13 01:40:32;;;;;;;18.80;6.35;;;;;;;12.41;85.50;95965.41;5070605;28;20048;-81
2022/09/13 01:43:23;;;;;;;20.67;6.75;;;;;;;12.44;85.60;95959.28;5071046;28;20063;-79
2022/09/13 01:45:56;;;;;;;26.17;7.30;;;;;;;12.36;85.61;95951.97;5071154;28;20048;-80
2022/09/13 01:48:34;;;;;;;20.02;6.85;;;;;;;12.22;85.85;95936.72;5070455;28;20040;-81
2022/09/13 01:51:04;;;;;;;17.30;6.78;;;;;;;12.22;85.70;95942.19;5070385;28;20052;-79
2022/09/13 01:53:38;;;;;;;18.48;6.40;;;;;;;12.27;85.86;95939.22;5070787;28;20040;-80
2022/09/13 01:56:12;;;;;;;22.65;6.82;;;;;;;12.31;85.88;95947.53;5070110;28;20143;-81
2022/09/13 01:58:45;;;;;;;21.33;6.80;;;;;;;12.32;85.95;95948.31;5070850;28;20044;-82
2022/09/13 02:01:17;;;;;;;26.02;6.63;;;;;;;12.28;85.88;95943.53;5070174;28;20462;-80
2022/09/13 02:03:54;;;;;;;20.17;7.28;;;;;;;12.30;85.29;95953.31;5070641;28;20044;-81
2022/09/13 02:06:26;;;;;;;22.80;7.20;;;;;;;12.34;84.92;95954.25;5070017;28;20048;-80
2022/09/13 02:08:56;;;;;;;24.17;7.80;;;;;;;12.23;84.79;95954.69;5070330;28;20670;-81
2022/09/13 02:11:23;;;;;;;23.23;6.97;;;;;;;12.22;85.19;95953.09;5069901;28;20040;-79
2022/09/13 02:13:57;;;;;;;22.88;6.70;;;;;;;12.22;85.21;95961.28;5069400;28;20051;-78
2022/09/13 02:16:29;;;;;;;27.80;7.68;;;;;;;12.27;85.22;95966.53;5069634;28;20442;-79
2022/09/13 02:19:02;;;;;;;18.15;6.28;;;;;;;12.24;85.46;95960.94;5070422;28;20044;-77
2022/09/13 02:21:32;;;;;;;19.40;6.50;;;;;;;12.21;85.39;95951.47;5070075;28;20045;-79
2022/09/13 02:24:03;;;;;;;26.83;7.10;;;;;;;12.22;84.90;95947.63;5070222;28;20048;-79
2022/09/13 02:26:30;;;;;;;17.73;6.57;;;;;;;12.21;84.61;95951.47;5069710;28;20040;-80
2022/09/13 02:29:01;;;;;;;28.80;7.60;;;;;;;12.11;84.61;95954.66;5070142;28;20051;-78
2022/09/13 02:31:34;;;;;;;20.95;6.60;;;;;;;12.07;84.57;95953.75;5069603;28;20066;-79
2022/09/13 02:34:05;;;;;;;21.88;6.95;;;;;;;12.07;84.10;95961.13;5070292;28;20044;-79
2022/09/13 02:36:35;;;;;;;23.33;6.97;;;;;;;12.00;84.30;95964.38;5070018;28;20048;-79
2022/09/13 02:39:05;;;;;;;22.50;7.00;;;;;;;11.98;84.71;95958.47;5069236;28;20530;-79
2022/09/13 02:41:37;;;;;;;14.73;5.82;;;;;;;11.98;84.90;95958.47;5070155;28;20048;-79
2022/09/13 02:44:09;;;;;;;29.20;8.07;;;;;;;12.01;85.80;95964.06;5069652;28;20071;-78
2022/09/13 02:46:51;;;;;;;18.50;6.35;;;;;;;12.03;86.03;95963.72;5070153;28;20078;-79
2022/09/13 02:49:26;;;;;;;31.52;7.72;;;;;;;12.05;85.51;95971.56;5069404;28;20044;-79
2022/09/13 02:51:57;;;;;;;28.27;7.45;;;;;;;12.00;85.25;95969.84;5069694;28;20051;-79
2022/09/13 02:54:30;;;;;;;18.00;6.70;;;;;;;11.98;85.84;95966.66;5068998;28;20391;-79
2022/09/13 02:57:02;;;;;;;27.95;7.63;;;;;;;11.96;86.03;95966.22;5069799;28;20055;-79
2022/09/13 02:59:28;;;;;;;23.70;6.47;;;;;;;11.96;86.00;95972.47;5069589;28;20048;-78
2022/09/13 03:01:59;;;;;;;22.42;6.72;;;;;;;11.95;85.98;95970.06;5069588;28;20048;-79
2022/09/13 03:04:28;;;;;;;24.63;6.93;;;;;;;11.91;86.01;95975.41;5069278;28;20041;-79
2022/09/13 03:06:54;;;;;;;28.98;7.57;;;;;;;11.91;86.36;95977.34;5069449;28;20507;-79
2022/09/13 03:09:21;;;;;;;27.52;6.50;;;;;;;11.89;86.07;95976.84;5069182;28;20057;-82
2022/09/13 03:12:03;;;;;;;26.50;7.22;;;;;;;11.86;85.71;95980.28;5069513;28;20480;-79
2022/09/13 03:14:41;;;;;;;23.73;7.13;;;;;;;11.66;85.46;95969.00;5069329;28;20051;-79
2022/09/13 03:17:26;;;;;;;19.60;7.32;;;;;;;11.58;86.06;95971.81;5069280;28;20151;-80
2022/09/13 03:20:08;;;;;;;27.13;7.45;;;;;;;11.40;86.63;95961.03;5069416;28;20143;-79
2022/09/13 03:22:51;;;;;;;25.70;7.03;;;;;;;11.53;86.36;95953.72;5069254;28;20040;-78
2022/09/13 03:25:30;;;;;;;34.67;8.38;;;;;;;11.36;86.48;95948.41;5070599;28;20037;-77
2022/09/13 03:28:08;;;;;;;31.15;8.73;;;;;;;11.31;87.53;95949.41;5073424;28;20051;-79
2022/09/13 03:30:38;;;;;;;25.33;7.15;;;;;;;11.41;87.05;95951.72;5073448;28;20052;-79
2022/09/13 03:33:12;;;;;;;26.90;7.18;;;;;;;11.48;87.01;95951.19;5072736;28;20515;-79
2022/09/13 03:35:44;;;;;;;21.05;6.85;;;;;;;11.60;87.22;95959.44;5073252;28;20507;-78
2022/09/13 03:38:15;;;;;;;24.17;7.53;;;;;;;11.43;86.77;95954.94;5073013;28;20048;-79
2022/09/13 03:40:48;;;;;;;22.73;6.68;;;;;;;11.51;86.59;95958.72;5073255;28;20518;-80
2022/09/13 03:43:18;;;;;;;19.95;6.65;;;;;;;11.46;86.89;95948.00;5072946;28;20049;-79
2022/09/13 03:45:49;;;;;;;19.10;6.85;;;;;;;11.41;87.11;95945.47;5073020;28;20044;-80
2022/09/13 03:48:17;;;;;;;17.85;6.93;;;;;;;11.36;86.79;95937.50;5073215;28;20044;-79
2022/09/13 03:50:46;;;;;;;18.13;6.72;;;;;;;11.40;86.35;95939.22;5072992;28;20053;-79
2022/09/13 03:53:26;;;;;;;15.82;6.20;;;;;;;11.46;86.53;95937.09;5072794;28;20044;-79
2022/09/13 03:55:53;;;;;;;22.05;7.03;;;;;;;11.30;86.56;95939.63;5072785;28;20052;-79
2022/09/13 03:58:21;;;;;;;15.68;6.13;;;;;;;11.39;86.63;95943.09;5072853;28;20075;-79
2022/09/13 04:00:48;;;;;;;23.27;7.18;;;;;;;11.43;86.48;95938.56;5072902;28;20052;-79
2022/09/13 04:03:15;;;;;;;18.42;7.07;;;;;;;11.40;87.05;95932.97;5072509;28;20055;-80
2022/09/13 04:05:41;;;;;;;19.25;7.03;;;;;;;11.49;86.93;95936.44;5072855;28;20048;-79
2022/09/13 04:08:09;;;;;;;21.63;6.50;;;;;;;11.51;87.28;95950.53;5072504;28;20048;-79
2022/09/13 04:10:36;;;;;;;17.50;6.22;;;;;;;11.48;86.70;95935.66;5072864;28;20487;-80
2022/09/13 04:13:03;;;;;;;28.80;7.22;;;;;;;11.51;86.61;95939.63;5068865;28;20668;-80
2022/09/13 04:15:30;;;;;;;21.60;6.75;;;;;;;11.48;86.47;95937.56;5071815;28;20048;-79
2022/09/13 04:17:57;;;;;;;23.02;6.65;;;;;;;11.49;86.41;95941.91;5072554;28;20132;-79
2022/09/13 04:20:24;;;;;;;18.90;6.50;;;;;;;11.54;85.83;95949.06;5071580;28;20068;-79
2022/09/13 04:22:51;;;;;;;18.73;6.68;;;;;;;11.52;86.01;95951.31;5072647;28;20048;-79
2022/09/13 04:25:20;;;;;;;25.80;7.15;;;;;;;11.54;85.88;95949.88;5072039;28;20052;-80
2022/09/13 04:27:47;;;;;;;25.08;7.05;;;;;;;11.54;86.25;95949.88;5072347;28;20042;-79
2022/09/13 04:30:14;;;;;;;14.13;5.57;;;;;;;11.54;86.41;95955.31;5072223;28;20135;-79
2022/09/13 04:32:42;;;;;;;21.42;6.55;;;;;;;11.40;86.13;95954.78;5072504;28;20052;-79
2022/09/13 04:35:09;;;;;;;21.00;6.45;;;;;;;11.40;86.28;95954.78;5071815;28;20053;-79
2022/09/13 04:37:36;;;;;;;22.55;6.43;;;;;;;11.45;86.20;95957.31;5071202;28;20044;-79
2022/09/13 04:40:03;;;;;;;21.35;6.93;;;;;;;11.48;86.81;95968.38;5071762;28;20047;-78
2022/09/13 04:42:31;;;;;;;22.75;6.20;;;;;;;11.45;86.56;95957.31;5072220;28;20487;-79
2022/09/13 04:44:58;;;;;;;14.27;5.35;;;;;;;11.48;86.64;95959.38;5071830;28;20048;-79
2022/09/13 04:47:25;;;;;;;15.60;6.38;;;;;;;11.49;86.84;95956.31;5072128;28;20052;-79
2022/09/13 04:49:51;;;;;;;21.45;6.18;;;;;;;11.56;86.69;95957.72;5076552;28;20462;-79
2022/09/13 04:52:18;;;;;;;19.48;6.43;;;;;;;11.60;86.19;95969.56;5071673;28;20083;-80
2022/09/13 04:54:44;;;;;;;18.10;6.25;;;;;;;11.54;86.23;95966.25;5071643;28;20048;-77
2022/09/13 04:57:11;;;;;;;23.60;6.50;;;;;;;11.28;86.06;95973.81;5071543;28;20041;-77
2022/09/13 04:59:39;;;;;;;20.67;6.55;;;;;;;11.35;86.27;95976.81;5072140;28;20072;-78
2022/09/13 05:02:06;;;;;;;18.08;6.18;;;;;;;11.34;86.69;95977.94;5071196;28;20074;-78
2022/09/13 05:04:32;;;;;;;21.90;6.43;;;;;;;11.11;87.24;95975.50;5071887;28;20032;-77
2022/09/13 05:06:59;;;;;;;22.98;6.43;;;;;;;11.05;87.80;95976.81;5071553;28;20056;-78
2022/09/13 05:09:26;;;;;;;19.48;7.03;;;;;;;11.04;88.06;95983.41;5071337;28;20474;-77
2022/09/13 05:11:52;;;;;;;26.08;6.80;;;;;;;11.10;88.24;95973.91;5071883;28;20045;-78
2022/09/13 05:14:19;;;;;;;19.48;7.10;;;;;;;11.16;88.34;95974.50;5071176;28;20651;-77
2022/09/13 05:16:46;;;;;;;26.63;7.03;;;;;;;11.24;87.98;95977.19;5071475;28;20403;-78
2022/09/13 05:19:13;;;;;;;24.98;7.10;;;;;;;11.34;88.10;95977.94;5070843;28;20037;-79
2022/09/13 05:21:40;;;;;;;25.10;6.80;;;;;;;11.30;88.57;95974.28;5071338;28;20041;-78
2022/09/13 05:24:07;;;;;;;27.10;11.77;;;;;;;11.36;88.39;95981.13;5071136;28;20052;-77
2022/09/13 05:26:33;;;;;;;22.38;6.90;;;;;;;11.34;88.65;95972.47;5071506;28;20045;-78
2022/09/13 05:29:00;;;;;;;20.98;7.03;;;;;;;11.43;88.48;95978.66;5071476;28;20052;-77
2022/09/13 05:31:29;;;;;;;21.15;6.55;;;;;;;11.46;88.33;95976.06;5071018;28;20059;-77
2022/09/13 05:33:59;;;;;;;23.50;6.90;;;;;;;11.54;89.08;95968.97;5071188;28;20114;-78
2022/09/13 05:36:26;;;;;;;16.15;5.88;;;;;;;11.69;88.76;95965.63;5071098;28;20055;-78
2022/09/13 05:38:53;;;;;;;18.98;6.22;;;;;;;11.79;88.51;95966.31;5071008;28;20044;-79
2022/09/13 05:41:20;;;;;;;18.73;6.10;;;;;;;11.89;88.33;95982.31;5070647;28;20036;-79
2022/09/13 05:43:47;;;;;;;21.10;6.45;;;;;;;11.95;87.83;95986.44;5070893;28;20048;-79
2022/09/13 05:46:15;;;;;;;18.23;5.93;;;;;;;11.99;87.80;95990.09;5070541;28;20411;-78
2022/09/13 05:48:42;;;;;;;15.57;5.63;;;;;;;12.11;87.40;95984.69;5070738;28;20142;-79
2022/09/13 05:51:12;;;;;;;18.95;5.40;;;;;;;12.20;87.54;95985.38;5070486;28;20056;-79
2022/09/13 05:53:40;;;;;;;20.65;5.57;;;;;;;12.22;86.49;95985.06;5070818;28;20055;-80
2022/09/13 05:56:07;;;;;;;12.45;4.40;;;;;;;12.26;86.34;95978.56;5070309;28;20487;-78
2022/09/13 05:58:34;;;;;;;22.33;5.75;;;;;;;12.35;86.73;95972.22;5070219;28;20127;-79
2022/09/13 06:01:01;;;;;;;24.02;5.55;;;;;;;12.41;86.95;95971.66;5070090;28;20133;-79
2022/09/13 06:03:27;;;;;;;21.63;5.70;;;;;;;12.42;86.78;95973.25;5070505;28;20044;-79
2022/09/13 06:05:58;;;;;;;18.95;5.43;;;;;;;12.48;87.03;95971.13;5070888;28;20051;-79
2022/09/13 06:08:27;;;;;;;25.40;5.72;;;;;;;12.57;86.53;95960.06;5070065;28;20399;-79
2022/09/13 06:10:56;;;;;;;22.15;5.13;;;;;;;12.50;85.55;95964.16;5070139;28;20048;-79
2022/09/13 06:13:23;;;;;;;26.17;5.30;;;;;;;12.41;85.78;95955.28;5067523;28;20090;-79
2022/09/13 06:15:49;;;;;;;21.17;4.82;;;;;;;12.48;85.74;95952.00;5069890;28;20048;-79
2022/09/13 06:18:16;;;;;;;21.48;4.82;;;;;;;12.45;86.03;95952.66;5069833;28;20044;-79
2022/09/13 06:20:43;;;;;;;17.52;4.35;;;;;;;12.66;85.55;95942.44;5070222;28;20044;-78
2022/09/13 06:23:09;;;;;;;19.33;4.85;;;;;;;12.67;85.30;95951.44;5069747;28;20055;-78
2022/09/13 06:25:37;;;;;;;16.55;4.45;;;;;;;12.85;85.23;95960.22;5070428;28;20053;-78
2022/09/13 06:28:04;;;;;;;13.38;3.85;;;;;;;12.86;84.75;95965.34;5069976;28;20659;-78
2022/09/13 06:30:31;;;;;;;16.15;4.18;;;;;;;12.90;84.44;95960.78;5070355;28;20048;-78
2022/09/13 06:32:57;;;;;;;22.13;4.70;;;;;;;12.93;84.79;95967.47;5069901;28;20048;-78
2022/09/13 06:35:24;;;;;;;73.15;10.50;;;;;;;13.02;84.29;95968.16;5066978;28;20075;-76
2022/09/13 06:37:50;;;;;;;24.13;5.15;;;;;;;12.98;84.78;95962.59;5069007;28;20068;-77
2022/09/13 06:40:17;;;;;;;11.40;3.33;;;;;;;13.05;84.53;95964.75;5069863;28;20047;-75
2022/09/13 06:42:45;;;;;;;16.42;3.88;;;;;;;13.29;84.24;95969.41;5070227;28;20045;-76
2022/09/13 06:45:11;;;;;;;13.30;3.38;;;;;;;13.53;83.51;95972.09;5069981;28;20040;-75
2022/09/13 06:47:37;;;;;;;18.40;4.05;;;;;;;13.71;83.16;95975.34;5070434;28;20090;-74
2022/09/13 06:50:06;;;;;;;17.02;3.97;;;;;;;13.82;83.02;95965.50;5069355;28;20048;-75
2022/09/13 06:52:32;;;;;;;17.08;3.85;;;;;;;13.73;82.07;95959.41;5070229;28;20044;-75
2022/09/13 06:54:59;;;;;;;19.05;4.22;;;;;;;13.97;81.99;95952.22;5068916;28;20044;-75
2022/09/13 06:57:25;;;;;;;15.35;3.60;;;;;;;14.14;81.73;95938.19;5069383;28;20045;-76
2022/09/13 06:59:53;;;;;;;11.13;3.45;;;;;;;14.35;80.92;95937.97;5070159;28;20075;-78
2022/09/13 07:02:19;;;;;;;12.70;3.45;;;;;;;14.47;79.44;95943.41;5069944;28;20048;-77
2022/09/13 07:04:46;;;;;;;14.45;2.95;;;;;;;14.42;78.33;95953.81;5070064;28;20043;-76
2022/09/13 07:07:12;;;;;;;12.18;2.80;;;;;;;14.63;78.33;95959.06;5069599;28;20056;-75
2022/09/13 07:09:42;;;;;;;13.05;6.28;;;;;;;14.84;78.05;95957.63;5069925;28;20052;-75
2022/09/13 07:12:08;;;;;;;12.48;3.53;;;;;;;15.95;74.22;95965.59;5069599;28;20068;-77
2022/09/13 07:14:35;;;;;;;9.00;2.60;;;;;;;17.31;67.81;95956.97;5069913;28;20048;-77
2022/09/13 07:17:03;;;;;;;14.55;3.10;;;;;;;18.04;63.93;95961.09;5069126;28;20048;-74
2022/09/13 07:19:30;;;;;;;13.27;2.85;;;;;;;18.25;61.35;95960.53;5070112;28;20045;-79
2022/09/13 07:21:57;;;;;;;22.77;4.13;;;;;;;18.38;60.94;95961.88;5070146;28;20041;-77
2022/09/13 07:24:24;;;;;;;11.85;2.75;;;;;;;18.76;60.11;95965.41;5069503;28;20052;-75
2022/09/13 07:26:50;;;;;;;17.65;3.22;;;;;;;18.87;58.12;95969.06;5069802;28;20094;-79
2022/09/13 07:29:21;;;;;;;46.70;6.80;;;;;;;19.13;58.44;95968.09;5064069;28;20053;-76
2022/09/13 07:31:49;;;;;;;14.38;2.72;;;;;;;19.45;57.21;95967.53;5067614;28;20047;-78
2022/09/13 07:34:19;;;;;;;10.23;2.30;;;;;;;19.54;56.45;95974.28;5068740;28;20048;-78
2022/09/13 07:36:47;;;;;;;13.05;2.58;;;;;;;19.50;56.61;95967.94;5069702;28;20048;-77
2022/09/13 07:39:14;;;;;;;13.75;2.55;;;;;;;19.08;57.66;95967.66;5068833;28;20055;-76
2022/09/13 07:41:41;;;;;;;11.80;2.58;;;;;;;19.46;58.93;95972.66;5069745;28;20036;-77
2022/09/13 07:44:09;;;;;;;17.33;3.00;;;;;;;19.62;57.85;95974.34;5069176;28;20045;-79
2022/09/13 07:46:38;;;;;;;8.55;2.15;;;;;;;19.73;56.99;95975.22;5069752;28;20110;-79
2022/09/13 07:49:06;;;;;;;15.85;3.05;;;;;;;19.93;59.30;95973.72;5068780;28;20522;-78
2022/09/13 07:51:38;;;;;;;11.18;2.35;;;;;;;20.14;56.66;95986.06;5069300;28;20044;-79
2022/09/13 07:54:07;;;;;;;13.77;2.97;;;;;;;20.10;56.50;95982.47;5069079;28;20043;-78
2022/09/13 07:56:35;;;;;;;12.02;2.35;;;;;;;20.19;58.45;95983.72;5069361;28;20060;-78
2022/09/13 07:59:03;;;;;;;17.00;3.33;;;;;;;20.35;58.15;95983.38;5068916;28;20048;-75
2022/09/13 08:01:34;;;;;;;9.90;2.60;;;;;;;20.22;56.92;95980.19;5069515;28;20064;-78
2022/09/13 08:04:03;;;;;;;39.35;6.65;;;;;;;20.17;57.11;95977.00;5068796;28;20052;-75
2022/09/13 08:06:31;;;;;;;17.52;2.65;;;;;;;20.02;59.09;95976.94;5069117;28;20043;-76
2022/09/13 08:08:59;;;;;;;15.73;3.08;;;;;;;19.83;58.86;95968.94;5069331;28;20052;-76
2022/09/13 08:11:29;;;;;;;11.52;2.50;;;;;;;19.98;58.65;95976.13;5068927;28;20059;-75
2022/09/13 08:13:55;;;;;;;17.15;3.70;;;;;;;20.06;58.29;95971.44;5072839;28;20049;-76
2022/09/13 08:16:24;;;;;;;10.40;2.70;;;;;;;20.27;57.86;95967.97;5072379;28;20450;-76
2022/09/13 08:18:53;;;;;;;14.70;3.17;;;;;;;20.38;57.26;95968.00;5072520;28;20051;-75
2022/09/13 08:21:20;;;;;;;11.95;2.65;;;;;;;20.28;57.59;95966.78;5070079;28;20051;-76
2022/09/13 08:23:47;;;;;;;13.80;2.95;;;;;;;20.43;60.54;95959.31;5072471;28;20048;-76
2022/09/13 08:26:16;;;;;;;10.70;2.40;;;;;;;20.47;56.65;95960.16;5071700;28;20125;-79
2022/09/13 08:28:43;;;;;;;8.70;1.98;;;;;;;20.82;60.34;95959.38;5072458;28;20123;-75
2022/09/13 08:31:12;;;;;;;16.90;3.35;;;;;;;20.86;56.51;95951.88;5072076;28;20094;-79
2022/09/13 08:33:39;;;;;;;13.50;3.00;;;;;;;20.69;55.49;95953.47;5072601;28;20127;-77
2022/09/13 08:36:06;;;;;;;13.98;3.03;;;;;;;20.62;58.25;95958.19;5071471;28;20498;-77
2022/09/13 08:38:32;;;;;;;10.98;2.70;;;;;;;20.71;56.15;95961.34;5072381;28;20048;-77
2022/09/13 08:41:03;;;;;;;9.60;2.50;;;;;;;20.45;55.95;95960.50;5072635;28;20067;-77
2022/09/13 08:43:44;;;;;;;20.45;3.85;;;;;;;20.74;58.66;95960.59;5071980;28;20060;-77
2022/09/13 08:46:20;;;;;;;17.42;3.75;;;;;;;20.73;55.53;95962.56;5072071;28;20051;-76
2022/09/13 08:48:50;;;;;;;14.02;3.10;;;;;;;20.90;58.33;95952.69;5072300;28;20045;-75
2022/09/13 08:51:28;;;;;;;9.88;2.40;;;;;;;21.22;58.52;95947.13;5071551;28;20048;-76
2022/09/13 08:53:56;;;;;;;11.32;2.75;;;;;;;21.30;56.78;95947.97;5071740;28;20072;-75
2022/09/13 08:56:28;;;;;;;9.75;2.42;;;;;;;21.35;56.03;95948.34;5071436;28;20041;-75
2022/09/13 08:59:08;;;;;;;14.45;2.85;;;;;;;20.90;53.58;95949.91;5071873;28;20049;-77
2022/09/13 09:01:50;;;;;;;9.90;2.47;;;;;;;21.11;55.34;95941.63;5072100;28;20484;-77
2022/09/13 09:04:33;;;;;;;17.55;2.83;;;;;;;21.22;55.37;95957.44;5071820;28;20068;-76
2022/09/13 09:07:05;;;;;;;20.83;3.45;;;;;;;21.20;54.89;95943.19;5072188;28;20403;-79
2022/09/13 09:09:36;;;;;;;14.75;2.88;;;;;;;21.17;54.92;95950.31;5071750;28;20068;-77
2022/09/13 09:12:14;;;;;;;38.30;5.45;;;;;;;20.98;53.49;95937.66;5071093;28;20052;-78
2022/09/13 09:14:46;;;;;;;12.95;2.60;;;;;;;21.03;54.75;95945.56;5072004;28;20044;-77
2022/09/13 09:17:16;;;;;;;13.25;2.83;;;;;;;20.87;55.84;95949.91;5072334;28;20052;-81
2022/09/13 09:19:46;;;;;;;12.13;2.40;;;;;;;20.92;57.07;95949.50;5071710;28;20055;-76
2022/09/13 09:22:16;;;;;;;17.75;3.03;;;;;;;21.23;55.73;95953.47;5070974;28;20443;-77
2022/09/13 09:24:47;;;;;;;9.95;2.30;;;;;;;21.09;56.05;95945.97;5071074;28;20656;-79
2022/09/13 09:27:15;;;;;;;23.20;3.97;;;;;;;21.22;53.39;95936.06;5070910;28;20048;-81
2022/09/13 09:29:43;;;;;;;12.68;2.53;;;;;;;21.10;55.17;95944.78;5071502;28;20415;-78
2022/09/13 09:32:21;;;;;;;14.25;2.63;;;;;;;21.43;54.51;95946.34;5071343;28;20068;-76
2022/09/13 09:35:00;;;;;;;24.67;3.80;;;;;;;21.44;54.28;95936.06;5071172;28;20044;-79
2022/09/13 09:37:30;;;;;;;22.30;3.63;;;;;;;21.43;53.39;95928.94;5070646;28;20049;-76
2022/09/13 09:40:02;;;;;;;18.95;3.33;;;;;;;21.35;53.35;95919.84;5069752;28;20521;-76
2022/09/13 09:42:34;;;;;;;12.77;2.70;;;;;;;21.51;54.01;95919.44;5071026;28;20098;-75
2022/09/13 09:45:07;;;;;;;16.23;2.77;;;;;;;21.52;53.33;95921.81;5071131;28;20048;-75
2022/09/13 09:47:43;;;;;;;9.55;2.17;;;;;;;21.78;55.10;95922.53;5070317;28;20344;-76
2022/09/13 09:50:13;;;;;;;15.05;2.88;;;;;;;21.88;54.21;95924.47;5070460;28;20044;-74
2022/09/13 09:52:44;;;;;;;21.08;3.50;;;;;;;21.99;52.96;95916.91;5070514;28;20044;-75
2022/09/13 09:55:19;;;;;;;14.32;3.08;;;;;;;22.01;53.71;95917.28;5070232;28;20535;-76
2022/09/13 09:57:51;;;;;;;15.57;2.90;;;;;;;22.13;53.11;95908.53;5050649;28;20127;-76
2022/09/13 10:00:21;;;;;;;20.73;3.88;;;;;;;22.24;55.60;95910.44;5050462;28;20044;-74
2022/09/13 10:02:49;;;;;;;23.55;3.60;;;;;;;22.53;55.22;95911.88;5049385;28;20052;-78
2022/09/13 10:05:20;;;;;;;15.82;2.80;;;;;;;22.59;50.89;95909.44;5050316;28;20071;-78
2022/09/13 10:07:54;;;;;;;14.05;2.65;;;;;;;22.73;50.83;95909.34;5050739;28;20049;-78
2022/09/13 10:10:25;;;;;;;18.52;3.15;;;;;;;22.56;50.17;95897.19;5050218;28;20052;-77
2022/09/13 10:12:55;;;;;;;15.35;2.75;;;;;;;22.55;49.38;95898.38;5050468;28;20041;-76
2022/09/13 10:15:28;;;;;;;17.98;3.10;;;;;;;22.69;51.81;95896.69;5049859;28;20081;-75
2022/09/13 10:18:03;;;;;;;22.50;3.33;;;;;;;22.86;49.69;95892.97;5050424;28;20462;-75
2022/09/13 10:20:30;;;;;;;19.85;3.05;;;;;;;22.79;48.84;95902.16;5059975;28;20063;-75
2022/09/13 10:23:27;;;;;;;16.50;2.95;;;;;;;22.79;52.02;95895.81;5070167;28;20051;-74
2022/09/13 10:26:02;;;;;;;16.65;2.65;;;;;;;22.80;52.52;95891.84;5002581;28;20141;-74
2022/09/13 10:28:30;;;;;;;12.77;2.70;;;;;;;22.90;52.50;95885.44;5055389;28;20064;-75
2022/09/13 10:31:02;;;;;;;19.75;3.00;;;;;;;22.73;50.82;95875.25;5070254;28;20439;-75
2022/09/13 10:33:32;;;;;;;49.45;6.88;;;;;;;22.91;50.95;95876.69;5066156;28;20109;-77
2022/09/13 10:36:03;;;;;;;15.50;2.60;;;;;;;23.09;50.56;95878.53;5067951;28;20052;-77
2022/09/13 10:38:32;;;;;;;10.98;2.55;;;;;;;23.12;49.01;95875.72;5069585;28;20064;-76
2022/09/13 10:41:01;;;;;;;30.98;4.45;;;;;;;23.07;49.20;95873.38;5069034;28;20048;-75
2022/09/13 10:43:29;;;;;;;14.90;2.95;;;;;;;23.00;50.36;95876.22;5068990;28;20051;-76
2022/09/13 10:45:57;;;;;;;22.88;3.05;;;;;;;23.02;50.47;95871.06;5069433;28;20059;-74
2022/09/13 10:48:25;;;;;;;15.18;2.38;;;;;;;23.08;47.60;95880.53;5069468;28;20044;-76
2022/09/13 10:51:02;;;;;;;34.47;4.90;;;;;;;23.12;50.63;95864.59;5068947;28;20053;-75
2022/09/13 10:53:35;;;;;;;14.30;2.70;;;;;;;23.07;49.91;95862.28;5069532;28;20428;-75
2022/09/13 10:56:01;;;;;;;10.63;2.25;;;;;;;23.18;49.63;95860.19;5069226;28;20463;-75
2022/09/13 10:58:29;;;;;;;17.92;2.85;;;;;;;23.26;49.00;95863.69;5069787;28;20541;-76
2022/09/13 11:01:37;;;;;;;28.02;4.22;;;;;;;23.14;50.64;95853.09;5068848;28;20051;-76
2022/09/13 11:04:33;;;;;;;18.95;2.85;;;;;;;23.16;49.65;95862.59;5069047;28;20098;-75
2022/09/13 11:07:31;;;;;;;18.58;3.03;;;;;;;23.20;49.82;95862.56;5069495;28;20090;-76
2022/09/13 11:10:02;;;;;;;15.98;2.75;;;;;;;23.15;48.20;95863.78;4994615;28;20051;-77
2022/09/13 11:12:38;;;;;;;14.98;2.67;;;;;;;23.15;50.76;95869.34;5069126;28;20052;-75
2022/09/13 11:15:17;;;;;;;19.30;3.03;;;;;;;23.18;52.06;95862.97;5069023;28;20052;-78
2022/09/13 11:18:08;;;;;;;12.38;2.30;;;;;;;23.28;50.90;95871.59;5069732;28;20407;-80
2022/09/13 11:20:47;;;;;;;28.90;4.00;;;;;;;22.97;50.09;95868.75;5063042;28;20040;-77
2022/09/13 11:23:55;;;;;;;15.73;2.63;;;;;;;23.08;52.90;95869.44;5069188;28;20053;-80
2022/09/13 11:26:36;;;;;;;13.55;2.45;;;;;;;23.17;49.28;95866.94;5054212;28;20057;-78
2022/09/13 11:29:14;;;;;;;11.10;2.22;;;;;;;23.23;50.18;95863.72;5068976;28;20044;-78
2022/09/13 11:31:50;;;;;;;14.32;2.40;;;;;;;23.25;51.60;95861.31;5069428;28;20044;-76
2022/09/13 11:34:31;;;;;;;13.60;2.40;;;;;;;23.13;51.69;95860.66;5067633;28;20079;-76
2022/09/13 11:37:16;;;;;;;17.10;2.63;;;;;;;23.06;49.21;95860.69;5069401;28;20105;-74
2022/09/13 11:39:52;;;;;;;17.88;2.78;;;;;;;23.01;49.88;95852.03;5069288;28;20037;-76
2022/09/13 11:42:36;;;;;;;14.05;2.30;;;;;;;23.08;47.87;95847.22;5068924;28;20446;-75